Time;durP1;ratioP1;P1;durP2;ratioP2;P2;SDS_P1;SDS_P2;PMS_P1;PMS_P2;Temp;Humidity;BMP_temperature;BMP_pressure;BME280_temperature;BME280_humidity;BME280_pressure;Samples;Min_cycle;Max_cycle;Signal;HPM_P1;HPM_P2
2022/01/05 00:00:55;;;;;;;10.90;2.15;;;4.60;99.90;;;;;;5068139;28;20048;-79
2022/01/05 00:03:20;;;;;;;13.27;2.28;;;4.70;99.90;;;;;;5054934;28;20131;-79
2022/01/05 00:05:46;;;;;;;14.23;2.35;;;6.00;99.90;;;;;;5067539;28;20147;-79
2022/01/05 00:08:14;;;;;;;9.50;2.42;;;4.60;99.90;;;;;;5104074;28;20044;-79
2022/01/05 00:10:39;;;;;;;7.20;1.98;;;4.60;99.90;;;;;;5054449;28;20056;-79
2022/01/05 00:13:05;;;;;;;9.02;2.33;;;4.60;99.90;;;;;;5065141;28;20126;-79
2022/01/05 00:15:31;;;;;;;8.07;2.10;;;4.60;99.90;;;;;;5068807;28;20047;-80
2022/01/05 00:17:57;;;;;;;8.02;2.10;;;4.60;99.90;;;;;;5053697;28;20040;-79
2022/01/05 00:20:24;;;;;;;6.25;1.90;;;5.60;99.90;;;;;;5055519;28;20043;-79
2022/01/05 00:22:49;;;;;;;7.25;2.20;;;4.50;99.90;;;;;;5070845;28;20127;-79
2022/01/05 00:25:15;;;;;;;7.93;1.80;;;5.00;99.90;;;;;;5052755;28;20118;-79
2022/01/05 00:27:41;;;;;;;11.77;2.33;;;5.70;99.90;;;;;;5052335;28;20048;-79
2022/01/05 00:30:07;;;;;;;4.80;1.55;;;4.50;99.90;;;;;;5083332;28;20040;-80
2022/01/05 00:32:33;;;;;;;5.32;1.55;;;4.50;99.90;;;;;;5067985;28;20165;-79
2022/01/05 00:34:59;;;;;;;8.32;2.10;;;4.50;99.90;;;;;;5071622;28;20511;-79
2022/01/05 00:37:25;;;;;;;7.40;2.10;;;4.50;99.90;;;;;;5038524;28;20442;-79
2022/01/05 00:39:50;;;;;;;12.20;2.15;;;4.50;99.90;;;;;;5067903;28;20059;-79
2022/01/05 00:42:16;;;;;;;9.18;2.10;;;4.50;99.90;;;;;;5037456;28;20135;-79
2022/01/05 00:44:42;;;;;;;10.75;2.25;;;4.50;99.90;;;;;;5067979;28;20051;-79
2022/01/05 00:47:07;;;;;;;7.28;2.25;;;4.50;99.90;;;;;;5103760;28;20031;-79
2022/01/05 00:49:33;;;;;;;10.23;2.60;;;5.10;99.90;;;;;;5038416;28;20043;-79
2022/01/05 00:51:59;;;;;;;10.98;2.05;;;4.50;99.90;;;;;;5071792;28;20044;-79
2022/01/05 00:54:25;;;;;;;15.63;3.33;;;4.70;99.90;;;;;;5054466;28;20139;-79
2022/01/05 00:56:51;;;;;;;9.68;2.55;;;4.50;99.90;;;;;;5083262;28;20050;-79
2022/01/05 00:59:16;;;;;;;13.70;3.00;;;5.00;99.90;;;;;;5038540;28;20048;-80
2022/01/05 01:01:42;;;;;;;12.52;2.53;;;4.60;99.90;;;;;;5069024;28;20047;-79
2022/01/05 01:04:08;;;;;;;14.93;2.70;;;5.20;99.90;;;;;;5068308;28;20552;-79
2022/01/05 01:06:33;;;;;;;13.50;2.92;;;4.70;99.90;;;;;;5068816;28;20055;-80
2022/01/05 01:08:59;;;;;;;7.05;2.28;;;6.00;99.90;;;;;;5069689;28;20119;-79
2022/01/05 01:11:25;;;;;;;12.65;2.50;;;4.70;99.90;;;;;;5085161;28;20590;-79
2022/01/05 01:13:51;;;;;;;16.15;2.80;;;4.90;99.90;;;;;;5068356;28;20064;-79
2022/01/05 01:16:19;;;;;;;13.43;3.13;;;4.80;99.90;;;;;;5069569;28;20070;-79
2022/01/05 01:18:45;;;;;;;11.70;2.40;;;5.00;99.90;;;;;;5087487;28;20389;-79
2022/01/05 01:21:11;;;;;;;15.80;3.13;;;4.80;99.90;;;;;;5068266;28;20044;-79
2022/01/05 01:23:37;;;;;;;10.90;2.95;;;4.80;99.90;;;;;;5069995;28;20386;-80
2022/01/05 01:26:03;;;;;;;14.15;2.75;;;4.70;99.90;;;;;;5084891;28;20397;-79
2022/01/05 01:28:29;;;;;;;15.10;2.65;;;4.80;99.90;;;;;;5084841;28;20139;-79
2022/01/05 01:30:55;;;;;;;12.52;2.10;;;4.70;99.90;;;;;;5051828;28;20464;-79
2022/01/05 01:33:21;;;;;;;9.93;2.25;;;4.80;99.90;;;;;;5084776;28;20039;-80
2022/01/05 01:35:47;;;;;;;9.25;2.42;;;4.80;99.90;;;;;;5039399;28;20056;-79
2022/01/05 01:38:13;;;;;;;10.00;2.25;;;4.80;99.90;;;;;;5058163;28;20046;-79
2022/01/05 01:40:38;;;;;;;17.85;2.97;;;5.80;99.90;;;;;;5070878;28;20564;-80
2022/01/05 01:43:04;;;;;;;14.88;2.67;;;4.80;99.90;;;;;;5084199;28;20043;-79
2022/01/05 01:45:30;;;;;;;13.55;3.30;;;4.80;99.90;;;;;;5058126;28;20374;-79
2022/01/05 01:47:56;;;;;;;7.80;2.10;;;6.40;99.90;;;;;;5056085;28;20069;-78
2022/01/05 01:50:22;;;;;;;9.73;2.30;;;4.90;99.90;;;;;;5080098;28;20052;-79
2022/01/05 01:52:47;;;;;;;12.93;2.28;;;4.80;99.90;;;;;;5072434;28;20051;-79
2022/01/05 01:55:13;;;;;;;6.38;1.95;;;4.80;99.90;;;;;;5084384;28;20092;-79
2022/01/05 01:57:43;;;;;;;7.13;2.05;;;5.60;99.90;;;;;;5057701;28;20056;-79
2022/01/05 02:00:10;;;;;;;15.65;3.15;;;4.80;99.90;;;;;;5088143;28;20055;-79
2022/01/05 02:02:37;;;;;;;9.70;2.30;;;4.80;99.90;;;;;;5075036;28;20056;-79
2022/01/05 02:05:03;;;;;;;13.02;2.55;;;4.80;99.90;;;;;;5088537;28;20051;-79
2022/01/05 02:07:30;;;;;;;7.10;2.28;;;4.80;99.90;;;;;;5084020;28;20051;-79
2022/01/05 02:09:55;;;;;;;6.82;1.95;;;4.80;99.90;;;;;;5054908;28;20104;-80
2022/01/05 02:12:26;;;;;;;10.65;2.03;;;4.70;99.90;;;;;;5038746;28;20051;-79
2022/01/05 02:14:55;;;;;;;10.27;2.58;;;4.70;99.90;;;;;;5040723;28;20048;-79
2022/01/05 02:17:29;;;;;;;12.43;2.40;;;4.70;99.90;;;;;;5086628;28;20100;-79
2022/01/05 02:19:55;;;;;;;6.63;1.95;;;4.70;99.90;;;;;;5087519;28;20039;-81
2022/01/05 02:22:20;;;;;;;11.27;1.88;;;4.70;99.90;;;;;;5086950;28;20549;-79
2022/01/05 02:24:47;;;;;;;10.63;2.30;;;5.40;99.90;;;;;;5057399;28;20416;-79
2022/01/05 02:27:14;;;;;;;10.20;2.25;;;4.50;99.90;;;;;;5040859;28;20385;-79
2022/01/05 02:29:40;;;;;;;4.70;1.35;;;4.40;99.90;;;;;;5038456;28;20508;-79
2022/01/05 02:32:06;;;;;;;8.73;1.80;;;5.30;99.90;;;;;;5056874;28;20389;-79
2022/01/05 02:34:32;;;;;;;7.63;1.73;;;4.40;99.90;;;;;;5033397;28;20050;-79
2022/01/05 02:36:58;;;;;;;11.02;2.08;;;4.40;99.90;;;;;;5086759;28;20047;-79
2022/01/05 02:39:24;;;;;;;8.57;2.30;;;4.80;99.90;;;;;;5088187;28;20048;-79
2022/01/05 02:41:50;;;;;;;8.80;2.03;;;4.50;99.90;;;;;;5087122;28;20040;-79
2022/01/05 02:44:16;;;;;;;10.30;2.42;;;4.60;99.90;;;;;;5086090;28;20162;-78
2022/01/05 02:46:42;;;;;;;12.07;2.20;;;6.10;99.90;;;;;;5038586;28;20521;-79
2022/01/05 02:49:07;;;;;;;8.15;2.30;;;4.70;99.90;;;;;;5050694;28;20044;-79
2022/01/05 02:51:33;;;;;;;9.05;3.00;;;4.70;99.90;;;;;;5086964;28;20169;-79
2022/01/05 02:53:59;;;;;;;9.60;2.13;;;4.80;99.90;;;;;;5084323;28;20044;-79
2022/01/05 02:56:24;;;;;;;6.30;1.90;;;5.00;99.90;;;;;;5070953;28;20137;-79
2022/01/05 02:58:50;;;;;;;10.82;1.48;;;4.50;99.90;;;;;;5084120;28;20379;-79
2022/01/05 03:01:16;;;;;;;7.82;1.42;;;4.60;99.90;;;;;;5071117;28;20549;-79
2022/01/05 03:03:42;;;;;;;11.95;2.28;;;5.30;99.90;;;;;;5086930;28;20507;-80
2022/01/05 03:06:07;;;;;;;9.27;2.20;;;4.20;99.90;;;;;;5088499;28;20131;-79
2022/01/05 03:08:33;;;;;;;10.48;2.45;;;4.10;99.90;;;;;;5071913;28;20067;-79
2022/01/05 03:10:59;;;;;;;8.38;1.88;;;4.90;99.90;;;;;;5069532;28;20082;-79
2022/01/05 03:13:25;;;;;;;9.27;2.22;;;4.10;99.90;;;;;;5070995;28;20070;-80
2022/01/05 03:15:52;;;;;;;9.68;2.17;;;4.10;99.90;;;;;;5085594;28;20409;-80
2022/01/05 03:18:18;;;;;;;8.65;2.08;;;5.60;99.90;;;;;;5070277;28;20050;-79
2022/01/05 03:20:46;;;;;;;11.15;2.13;;;4.20;99.90;;;;;;5072390;28;20051;-81
2022/01/05 03:23:12;;;;;;;10.23;2.20;;;4.20;99.90;;;;;;5071214;28;20047;-79
2022/01/05 03:25:39;;;;;;;8.75;2.25;;;4.20;99.90;;;;;;5083955;28;20047;-80
2022/01/05 03:28:04;;;;;;;10.95;2.63;;;4.20;99.90;;;;;;5056370;28;20104;-80
2022/01/05 03:30:31;;;;;;;13.43;2.65;;;4.30;99.90;;;;;;5085999;28;20044;-79
2022/01/05 03:35:23;;;;;;;13.48;3.42;;;4.60;99.90;;;;;;5068147;28;20048;-80
2022/01/05 03:37:49;;;;;;;13.60;2.97;;;4.70;99.90;;;;;;5055750;28;20051;-80
2022/01/05 03:40:15;;;;;;;14.00;3.17;;;4.80;99.90;;;;;;5072571;28;20040;-80
2022/01/05 03:42:40;;;;;;;10.80;2.58;;;6.00;99.90;;;;;;5070133;28;20079;-79
2022/01/05 03:45:07;;;;;;;13.35;2.55;;;4.80;99.90;;;;;;5071312;28;20046;-79
2022/01/05 03:47:33;;;;;;;12.57;2.40;;;4.80;99.90;;;;;;5077734;28;20134;-79
2022/01/05 03:49:59;;;;;;;10.93;2.88;;;4.80;99.90;;;;;;5068672;28;20126;-80
2022/01/05 03:52:24;;;;;;;17.77;2.90;;;5.40;99.90;;;;;;5051785;28;20089;-80
2022/01/05 03:54:50;;;;;;;16.27;3.88;;;4.80;99.90;;;;;;5085164;28;20055;-80
2022/01/05 03:57:16;;;;;;;11.18;2.70;;;5.90;99.90;;;;;;5084047;28;20047;-80
2022/01/05 03:59:42;;;;;;;17.20;2.72;;;4.90;99.90;;;;;;5070317;28;20044;-79
2022/01/05 04:02:08;;;;;;;9.05;2.25;;;4.90;99.90;;;;;;5067026;28;20173;-80
2022/01/05 04:04:33;;;;;;;15.50;2.83;;;4.80;99.90;;;;;;5069942;28;20040;-80
2022/01/05 04:06:59;;;;;;;15.77;3.17;;;5.00;99.90;;;;;;5067825;28;20036;-79
2022/01/05 04:09:25;;;;;;;12.43;2.78;;;6.40;99.90;;;;;;5055197;28;20042;-79
2022/01/05 04:11:51;;;;;;;9.38;2.22;;;4.80;99.90;;;;;;5036947;28;20122;-80
2022/01/05 04:14:16;;;;;;;14.00;2.97;;;4.80;99.90;;;;;;5065010;28;20139;-79
2022/01/05 04:16:42;;;;;;;14.60;2.95;;;5.00;99.90;;;;;;5064640;28;20070;-79
2022/01/05 04:19:08;;;;;;;10.77;2.72;;;4.70;99.90;;;;;;5066468;28;20040;-79
2022/01/05 04:21:34;;;;;;;15.23;2.85;;;4.70;99.90;;;;;;5052453;28;20051;-79
2022/01/05 04:23:59;;;;;;;15.07;3.17;;;4.80;99.90;;;;;;5064166;28;20413;-79
2022/01/05 04:26:25;;;;;;;8.73;2.13;;;4.90;99.90;;;;;;5081737;28;20100;-79
2022/01/05 04:28:51;;;;;;;16.52;2.63;;;4.90;99.90;;;;;;5082703;28;20063;-80
2022/01/05 04:31:17;;;;;;;15.95;2.85;;;4.90;99.90;;;;;;5066087;28;20047;-79
2022/01/05 04:33:42;;;;;;;11.13;2.92;;;4.80;99.90;;;;;;5049621;28;20040;-79
2022/01/05 04:36:08;;;;;;;19.02;3.67;;;4.80;99.90;;;;;;5060424;28;20123;-79
2022/01/05 04:38:34;;;;;;;11.73;2.53;;;4.70;99.90;;;;;;5080528;28;20444;-79
2022/01/05 04:41:00;;;;;;;16.40;3.03;;;4.60;99.90;;;;;;5051599;28;20040;-79
2022/01/05 04:43:26;;;;;;;17.45;2.88;;;4.60;99.90;;;;;;5078882;28;20094;-79
2022/01/05 04:45:51;;;;;;;17.08;2.88;;;4.60;99.90;;;;;;5064898;28;20040;-79
2022/01/05 04:48:17;;;;;;;16.75;3.30;;;4.60;99.90;;;;;;5065394;28;20036;-79
2022/01/05 04:50:43;;;;;;;19.92;3.10;;;4.60;99.90;;;;;;5082549;28;20048;-78
2022/01/05 04:53:11;;;;;;;15.52;3.20;;;4.70;99.90;;;;;;5061444;28;20105;-79
2022/01/05 04:55:41;;;;;;;15.98;3.45;;;4.80;99.90;;;;;;5051811;28;20085;-80
2022/01/05 04:58:07;;;;;;;20.77;4.22;;;4.80;99.90;;;;;;5064131;28;20040;-80
2022/01/05 05:00:33;;;;;;;15.15;3.20;;;5.60;99.90;;;;;;5082253;28;20039;-80
2022/01/05 05:02:58;;;;;;;17.27;3.42;;;6.20;99.90;;;;;;5063111;28;20048;-79
2022/01/05 05:05:24;;;;;;;14.35;3.15;;;4.90;99.90;;;;;;5051193;28;20036;-79
2022/01/05 05:07:50;;;;;;;16.25;3.33;;;4.90;99.90;;;;;;5066828;28;20058;-80
2022/01/05 05:10:16;;;;;;;22.27;3.88;;;4.80;99.90;;;;;;5074142;28;20048;-79
2022/01/05 05:12:42;;;;;;;17.35;3.50;;;4.90;99.90;;;;;;5088739;28;20044;-80
2022/01/05 05:15:08;;;;;;;15.95;3.65;;;4.90;99.90;;;;;;5057478;28;20471;-80
2022/01/05 05:17:34;;;;;;;18.35;3.50;;;4.90;99.90;;;;;;5055014;28;20039;-80
2022/01/05 05:19:59;;;;;;;17.02;3.10;;;5.00;99.90;;;;;;5056833;28;20051;-79
2022/01/05 05:22:25;;;;;;;9.82;2.60;;;5.00;99.90;;;;;;5065900;28;20090;-79
2022/01/05 05:24:51;;;;;;;17.92;3.17;;;5.00;99.90;;;;;;5057584;28;20039;-80
2022/01/05 05:27:17;;;;;;;16.92;3.03;;;5.00;99.90;;;;;;5087176;28;20072;-79
2022/01/05 05:29:42;;;;;;;18.17;3.53;;;5.00;99.90;;;;;;5056763;28;20048;-79
2022/01/05 05:32:09;;;;;;;15.60;3.05;;;5.10;99.90;;;;;;5055964;28;20048;-79
2022/01/05 05:34:35;;;;;;;18.52;2.75;;;5.10;99.90;;;;;;5057316;28;20464;-80
2022/01/05 05:37:00;;;;;;;17.40;2.63;;;5.80;99.90;;;;;;5086772;28;20127;-79
2022/01/05 05:39:26;;;;;;;16.75;3.17;;;5.00;99.90;;;;;;5070985;28;20127;-79
2022/01/05 05:41:52;;;;;;;22.35;3.85;;;5.00;99.90;;;;;;5070556;28;20560;-80
2022/01/05 05:44:18;;;;;;;13.20;2.22;;;5.00;99.90;;;;;;5087148;28;20036;-79
2022/01/05 05:46:44;;;;;;;13.05;2.40;;;5.00;99.90;;;;;;5071315;28;20867;-79
2022/01/05 05:49:10;;;;;;;12.88;2.50;;;4.80;99.90;;;;;;5072936;28;20047;-79
2022/01/05 05:51:36;;;;;;;12.77;2.83;;;4.70;99.90;;;;;;5056068;28;20554;-79
2022/01/05 05:54:02;;;;;;;24.05;3.38;;;4.70;99.90;;;;;;5072437;28;20094;-80
2022/01/05 05:56:28;;;;;;;12.52;2.95;;;4.60;99.90;;;;;;5057762;28;20071;-79
2022/01/05 05:58:53;;;;;;;12.48;2.72;;;5.80;99.90;;;;;;5089549;28;20489;-80
2022/01/05 06:01:19;;;;;;;12.65;2.65;;;5.10;99.90;;;;;;5069483;28;20119;-79
2022/01/05 06:03:45;;;;;;;13.98;2.50;;;4.40;99.90;;;;;;5054068;28;20059;-80
2022/01/05 06:06:10;;;;;;;13.65;2.30;;;5.20;99.90;;;;;;5087628;28;20491;-80
2022/01/05 06:08:36;;;;;;;15.82;2.42;;;4.30;99.90;;;;;;5054392;28;20628;-80
2022/01/05 06:11:02;;;;;;;16.05;2.35;;;4.30;99.90;;;;;;5058364;28;20040;-82
2022/01/05 06:13:28;;;;;;;14.52;2.45;;;4.40;99.90;;;;;;5058497;28;20406;-81
2022/01/05 06:15:54;;;;;;;11.25;2.40;;;4.60;99.90;;;;;;5070894;28;20046;-81
2022/01/05 06:18:20;;;;;;;16.30;3.13;;;4.70;99.90;;;;;;5074842;28;20484;-80
2022/01/05 06:20:45;;;;;;;14.65;2.60;;;4.70;99.90;;;;;;5084648;28;20048;-80
2022/01/05 06:23:11;;;;;;;10.95;2.47;;;4.90;99.90;;;;;;5070167;28;20443;-80
2022/01/05 06:25:37;;;;;;;10.00;2.38;;;4.90;99.90;;;;;;5073305;28;20047;-80
2022/01/05 06:28:03;;;;;;;8.70;2.00;;;5.00;99.90;;;;;;5038886;28;20051;-81
2022/01/05 06:30:29;;;;;;;15.07;2.58;;;5.00;99.90;;;;;;5086477;28;20075;-81
2022/01/05 06:32:55;;;;;;;15.02;2.75;;;5.00;99.90;;;;;;5086934;28;20086;-80
2022/01/05 06:35:23;;;;;;;16.52;2.50;;;5.10;99.90;;;;;;5067915;28;20051;-80
2022/01/05 06:37:51;;;;;;;18.05;2.97;;;5.10;99.90;;;;;;5038214;28;20043;-80
2022/01/05 06:40:17;;;;;;;18.70;3.35;;;5.30;99.90;;;;;;5066726;28;20556;-80
2022/01/05 06:42:43;;;;;;;16.67;3.00;;;5.20;99.90;;;;;;5073208;28;20155;-80
2022/01/05 06:45:09;;;;;;;12.65;2.47;;;5.20;99.90;;;;;;5054666;28;20082;-81
2022/01/05 06:47:35;;;;;;;10.98;1.80;;;5.10;99.90;;;;;;5068150;28;20133;-81
2022/01/05 06:50:01;;;;;;;11.43;1.77;;;5.10;99.90;;;;;;5053080;28;20052;-81
2022/01/05 06:52:27;;;;;;;9.82;1.60;;;5.00;99.90;;;;;;5084720;28;20044;-80
2022/01/05 06:54:52;;;;;;;13.23;2.90;;;5.00;99.90;;;;;;5079123;28;20040;-81
2022/01/05 06:57:19;;;;;;;16.50;3.03;;;5.00;99.90;;;;;;5037939;28;20049;-79
2022/01/05 06:59:44;;;;;;;14.85;2.85;;;5.00;99.90;;;;;;5069457;28;20075;-79
2022/01/05 07:02:10;;;;;;;15.25;2.88;;;5.10;99.90;;;;;;5084535;28;20474;-80
2022/01/05 07:04:36;;;;;;;16.05;3.33;;;5.20;99.90;;;;;;5054912;28;20048;-80
2022/01/05 07:07:02;;;;;;;16.85;3.35;;;5.30;99.90;;;;;;5052939;28;20473;-80
2022/01/05 07:09:28;;;;;;;20.98;4.65;;;5.40;99.90;;;;;;5072722;28;20050;-79
2022/01/05 07:11:53;;;;;;;23.40;3.70;;;5.40;99.90;;;;;;5063756;28;20044;-80
2022/01/05 07:14:20;;;;;;;23.67;4.32;;;5.50;99.90;;;;;;5068487;28;20116;-79
2022/01/05 07:16:46;;;;;;;17.30;3.35;;;5.60;99.90;;;;;;5055322;28;20051;-80
2022/01/05 07:19:12;;;;;;;15.48;2.92;;;5.70;99.90;;;;;;5072477;28;20051;-79
2022/01/05 07:21:38;;;;;;;20.88;3.20;;;5.70;99.90;;;;;;5055683;28;20043;-78
2022/01/05 07:24:04;;;;;;;16.27;3.05;;;5.70;99.90;;;;;;5077098;28;20093;-80
2022/01/05 07:26:31;;;;;;;17.80;3.80;;;5.60;99.90;;;;;;5088012;28;20047;-80
2022/01/05 07:28:57;;;;;;;16.20;3.20;;;6.60;99.90;;;;;;5071406;28;20070;-78
2022/01/05 07:31:23;;;;;;;18.23;3.65;;;5.60;99.90;;;;;;5082307;28;20508;-79
2022/01/05 07:33:49;;;;;;;21.15;4.50;;;5.60;99.90;;;;;;5068274;28;20044;-79
2022/01/05 07:36:14;;;;;;;17.25;2.83;;;5.70;99.90;;;;;;5086597;28;20044;-79
2022/01/05 07:38:40;;;;;;;23.35;4.03;;;5.80;99.90;;;;;;5056512;28;20044;-78
2022/01/05 07:41:06;;;;;;;11.70;2.55;;;6.10;99.90;;;;;;5073095;28;20044;-78
2022/01/05 07:43:32;;;;;;;13.43;2.78;;;5.90;99.90;;;;;;5075026;28;20051;-79
2022/01/05 07:45:59;;;;;;;15.07;2.15;;;5.90;99.90;;;;;;5071236;28;20050;-78
2022/01/05 07:48:24;;;;;;;16.88;2.53;;;5.90;99.90;;;;;;5090461;28;20134;-79
2022/01/05 07:50:50;;;;;;;20.35;2.95;;;5.70;99.90;;;;;;5074485;28;20138;-78
2022/01/05 07:53:16;;;;;;;12.15;1.70;;;5.70;99.90;;;;;;5054563;28;20066;-77
2022/01/05 07:55:42;;;;;;;12.65;2.03;;;5.60;99.90;;;;;;5056516;28;20553;-78
2022/01/05 07:58:07;;;;;;;6.95;1.75;;;5.50;99.90;;;;;;5085572;28;20123;-78
2022/01/05 08:00:33;;;;;;;11.80;2.15;;;5.40;99.90;;;;;;5053267;28;20050;-79
2022/01/05 08:02:59;;;;;;;13.68;2.50;;;5.30;99.90;;;;;;5053459;28;20052;-78
2022/01/05 08:05:24;;;;;;;17.10;2.53;;;5.30;99.90;;;;;;5066063;28;20539;-78
2022/01/05 08:07:50;;;;;;;13.15;3.08;;;5.30;99.90;;;;;;5055629;28;20109;-78
2022/01/05 08:10:16;;;;;;;16.70;3.20;;;5.40;99.90;;;;;;5066874;28;20055;-78
2022/01/05 08:12:42;;;;;;;20.05;3.92;;;5.90;99.90;;;;;;5053258;28;20374;-78
2022/01/05 08:15:09;;;;;;;20.50;4.00;;;5.60;99.90;;;;;;5067843;28;20146;-79
2022/01/05 08:17:35;;;;;;;21.67;4.07;;;5.70;99.90;;;;;;5070883;28;20052;-78
2022/01/05 08:20:03;;;;;;;22.10;3.90;;;5.80;99.90;;;;;;5053578;28;20057;-78
2022/01/05 08:22:28;;;;;;;8.55;2.65;;;5.90;99.90;;;;;;5036802;28;20055;-78
2022/01/05 08:24:54;;;;;;;12.77;2.85;;;5.90;99.90;;;;;;5085940;28;20039;-78
2022/01/05 08:27:20;;;;;;;12.45;2.72;;;6.10;99.90;;;;;;5067780;28;20047;-78
2022/01/05 08:29:46;;;;;;;16.67;2.63;;;5.90;99.90;;;;;;5055378;28;20083;-78
2022/01/05 08:32:11;;;;;;;18.63;3.70;;;5.90;99.90;;;;;;5080521;28;20040;-78
2022/01/05 08:34:37;;;;;;;21.73;4.40;;;5.90;99.90;;;;;;5054988;28;20050;-78
2022/01/05 08:37:03;;;;;;;19.00;4.15;;;5.90;99.90;;;;;;5037452;28;20122;-79
2022/01/05 08:39:29;;;;;;;23.38;4.20;;;6.00;99.90;;;;;;5085230;28;20036;-78
2022/01/05 08:41:54;;;;;;;12.82;3.47;;;6.00;99.90;;;;;;5087144;28;20050;-79
2022/01/05 08:44:20;;;;;;;18.58;4.22;;;6.00;99.90;;;;;;5071668;28;20046;-78
2022/01/05 08:46:46;;;;;;;17.60;3.13;;;6.60;99.90;;;;;;5055506;28;20054;-78
2022/01/05 08:49:12;;;;;;;24.13;3.70;;;6.30;99.90;;;;;;5056840;28;20052;-79
2022/01/05 08:51:38;;;;;;;18.38;3.67;;;6.00;99.90;;;;;;5088329;28;20051;-78
2022/01/05 08:54:06;;;;;;;21.60;3.33;;;6.20;99.90;;;;;;5105771;28;20496;-79
2022/01/05 08:56:32;;;;;;;13.75;2.65;;;6.10;99.90;;;;;;5072203;28;20043;-78
2022/01/05 08:58:58;;;;;;;12.13;2.63;;;6.10;99.90;;;;;;5072119;28;20113;-79
2022/01/05 09:01:25;;;;;;;17.35;2.97;;;6.20;99.90;;;;;;5072035;28;20051;-83
2022/01/05 09:03:52;;;;;;;12.27;3.00;;;6.20;99.90;;;;;;5086955;28;20132;-78
2022/01/05 09:06:22;;;;;;;18.92;3.33;;;6.10;99.90;;;;;;5071137;28;20105;-78
2022/01/05 09:08:48;;;;;;;20.75;3.10;;;6.10;99.90;;;;;;5057028;28;20059;-78
2022/01/05 09:11:15;;;;;;;13.50;3.97;;;6.10;99.90;;;;;;5080355;28;21016;-78
2022/01/05 09:13:42;;;;;;;20.50;3.60;;;6.10;99.90;;;;;;5087992;28;20420;-78
2022/01/05 09:16:08;;;;;;;21.23;3.20;;;6.20;99.90;;;;;;5071190;28;20060;-78
2022/01/05 09:18:34;;;;;;;13.60;3.22;;;6.90;99.90;;;;;;5090409;28;20388;-78
2022/01/05 09:20:59;;;;;;;13.60;2.72;;;6.20;99.90;;;;;;5071948;28;20104;-78
2022/01/05 09:23:25;;;;;;;14.65;2.72;;;6.20;99.90;;;;;;5072797;28;20055;-78
2022/01/05 09:25:51;;;;;;;20.25;3.35;;;6.30;99.90;;;;;;5071674;28;20050;-79
2022/01/05 09:28:17;;;;;;;18.90;4.28;;;6.30;99.90;;;;;;5073468;28;20085;-79
2022/01/05 09:30:45;;;;;;;15.77;3.15;;;6.30;99.90;;;;;;5057168;28;20051;-79
2022/01/05 09:33:15;;;;;;;13.73;2.90;;;6.30;99.90;;;;;;5071288;28;20047;-80
2022/01/05 09:35:42;;;;;;;18.15;3.13;;;6.30;99.90;;;;;;5057809;28;20120;-80
2022/01/05 09:38:21;;;;;;;17.80;3.00;;;6.30;99.90;;;;;;5072685;28;20047;-79
2022/01/05 09:43:47;;;;;;;12.15;2.67;;;6.30;99.90;;;;;;5075233;28;20592;-79
2022/01/05 09:46:29;;;;;;;16.63;3.22;;;6.30;99.90;;;;;;5088508;28;20071;-80
2022/01/05 09:48:55;;;;;;;16.20;2.92;;;6.30;99.90;;;;;;5090041;28;20594;-79
2022/01/05 09:51:24;;;;;;;13.25;2.67;;;6.30;99.90;;;;;;5084135;28;20050;-79
2022/01/05 09:53:51;;;;;;;24.98;3.35;;;6.40;99.90;;;;;;5072348;28;20044;-79
2022/01/05 09:56:17;;;;;;;19.58;3.45;;;6.40;99.90;;;;;;5075799;28;20055;-79
2022/01/05 09:58:43;;;;;;;20.83;4.10;;;7.40;99.90;;;;;;5051514;28;20058;-79
2022/01/05 10:01:09;;;;;;;26.50;4.32;;;6.60;99.90;;;;;;5092933;28;20044;-79
2022/01/05 10:03:35;;;;;;;25.27;3.50;;;6.70;99.90;;;;;;5092148;28;20063;-79
2022/01/05 10:06:01;;;;;;;7.22;1.80;;;6.80;99.90;;;;;;5075136;28;20043;-79
2022/01/05 10:08:28;;;;;;;10.48;2.00;;;6.70;99.90;;;;;;5093422;28;20512;-80
2022/01/05 10:10:54;;;;;;;4.57;1.40;;;6.70;99.90;;;;;;5059887;28;20047;-79
2022/01/05 10:13:19;;;;;;;3.95;0.73;;;6.60;99.90;;;;;;5092260;28;20047;-79
2022/01/05 10:15:45;;;;;;;4.20;1.10;;;6.50;99.90;;;;;;5091494;28;20055;-80
2022/01/05 10:18:21;;;;;;;11.93;1.90;;;6.40;99.90;;;;;;5076082;28;20420;-79
2022/01/05 10:20:55;;;;;;;9.27;1.83;;;6.50;99.90;;;;;;5091844;28;20497;-79
2022/01/05 10:23:42;;;;;;;13.57;2.55;;;6.90;99.90;;;;;;5073444;28;20405;-79
2022/01/05 10:26:19;;;;;;;18.70;2.40;;;7.20;99.90;;;;;;5072815;28;20079;-79
2022/01/05 10:28:47;;;;;;;14.10;2.60;;;7.80;99.90;;;;;;5074738;28;20077;-80
2022/01/05 10:31:18;;;;;;;13.43;2.80;;;8.00;99.90;;;;;;5091629;28;20122;-80
2022/01/05 10:33:44;;;;;;;12.80;2.33;;;8.20;99.90;;;;;;5081524;28;20054;-80
2022/01/05 10:36:10;;;;;;;16.98;2.72;;;8.20;99.90;;;;;;5070534;28;20039;-81
2022/01/05 10:38:36;;;;;;;14.15;2.67;;;8.30;99.90;;;;;;5072155;28;20795;-79
2022/01/05 10:41:16;;;;;;;8.90;1.88;;;8.40;99.90;;;;;;5084726;28;20130;-78
2022/01/05 10:44:20;;;;;;;9.30;2.38;;;7.70;99.90;;;;;;5085830;28;20536;-79
2022/01/05 10:46:49;;;;;;;17.10;3.17;;;7.40;99.90;;;;;;5071812;28;20400;-79
2022/01/05 10:49:29;;;;;;;13.68;3.10;;;6.80;99.90;;;;;;5087684;28;20078;-80
2022/01/05 10:51:57;;;;;;;18.63;3.25;;;7.20;99.90;;;;;;5081538;28;20053;-79
2022/01/05 10:54:26;;;;;;;15.30;3.53;;;7.10;99.90;;;;;;5074472;28;20055;-79
2022/01/05 10:56:52;;;;;;;16.30;3.63;;;7.10;99.90;;;;;;5074317;28;20742;-78
2022/01/05 10:59:36;;;;;;;17.50;3.35;;;7.20;99.90;;;;;;5072678;28;20048;-79
2022/01/05 11:02:30;;;;;;;21.60;3.30;;;7.10;99.90;;;;;;5073633;28;20059;-77
2022/01/05 11:05:13;;;;;;;10.15;2.97;;;7.00;99.90;;;;;;5085567;28;20039;-78
2022/01/05 11:07:42;;;;;;;11.45;2.80;;;7.00;99.90;;;;;;5080153;28;20079;-78
2022/01/05 11:10:14;;;;;;;16.85;3.75;;;7.10;99.90;;;;;;5085383;28;20047;-78
2022/01/05 11:12:51;;;;;;;12.45;1.95;;;6.70;99.90;;;;;;5081750;28;20398;-77
2022/01/05 11:15:33;;;;;;;7.43;1.75;;;6.60;99.90;;;;;;5070177;28;20100;-79
2022/01/05 11:18:09;;;;;;;4.03;1.33;;;6.40;99.90;;;;;;5069858;28;20079;-78
2022/01/05 11:21:01;;;;;;;9.73;1.88;;;6.30;99.90;;;;;;5065009;28;20096;-79
2022/01/05 11:23:28;;;;;;;8.05;1.65;;;6.30;99.90;;;;;;5066767;28;20074;-78
2022/01/05 11:25:59;;;;;;;9.02;2.03;;;6.30;99.90;;;;;;5061826;28;20047;-78
2022/01/05 11:28:26;;;;;;;6.13;1.80;;;6.30;99.90;;;;;;5081573;28;20066;-79
2022/01/05 11:30:55;;;;;;;10.80;1.92;;;6.30;99.90;;;;;;5071181;28;20040;-79
2022/01/05 11:33:21;;;;;;;10.80;2.65;;;6.30;99.90;;;;;;5068137;28;20043;-80
2022/01/05 11:35:49;;;;;;;7.95;1.98;;;6.30;99.90;;;;;;5072188;28;20086;-79
2022/01/05 11:38:15;;;;;;;12.80;2.53;;;7.30;99.90;;;;;;5052042;28;20047;-79
2022/01/05 11:40:52;;;;;;;12.65;2.40;;;6.80;99.90;;;;;;5070070;28;20170;-79
2022/01/05 11:43:28;;;;;;;11.80;2.50;;;7.40;99.90;;;;;;5067971;28;20522;-78
2022/01/05 11:45:54;;;;;;;10.82;2.33;;;6.50;99.90;;;;;;5066942;28;20051;-79
2022/01/05 11:48:40;;;;;;;13.15;2.78;;;6.60;99.90;;;;;;5067770;28;20647;-79
2022/01/05 11:51:06;;;;;;;11.15;3.00;;;6.70;99.90;;;;;;5070789;28;20100;-79
2022/01/05 11:53:41;;;;;;;19.08;3.35;;;6.90;99.90;;;;;;5069222;28;20043;-79
2022/01/05 11:56:20;;;;;;;15.07;3.43;;;7.10;99.90;;;;;;5082133;28;20089;-80
2022/01/05 11:59:24;;;;;;;9.98;2.00;;;7.20;99.90;;;;;;5085225;28;20044;-80
2022/01/05 12:02:00;;;;;;;14.73;2.30;;;7.10;99.90;;;;;;5043126;28;20044;-80
2022/01/05 12:04:27;;;;;;;16.02;2.72;;;6.90;99.90;;;;;;5079574;28;20131;-80
2022/01/05 12:06:55;;;;;;;14.35;2.45;;;6.70;99.90;;;;;;5067767;28;20040;-79
2022/01/05 12:09:23;;;;;;;6.75;1.80;;;6.60;99.90;;;;;;5069828;28;20044;-79
2022/01/05 12:11:50;;;;;;;8.05;2.53;;;6.50;99.90;;;;;;5078413;28;20408;-79
2022/01/05 12:14:22;;;;;;;14.20;2.50;;;6.40;99.90;;;;;;5082698;28;20497;-80
2022/01/05 12:17:05;;;;;;;10.18;2.30;;;6.50;99.90;;;;;;5084509;28;20082;-79
2022/01/05 12:19:46;;;;;;;13.95;2.67;;;6.50;99.90;;;;;;5067977;28;20132;-79
2022/01/05 12:22:24;;;;;;;10.32;2.60;;;6.60;99.90;;;;;;5083344;28;20043;-78
2022/01/05 12:24:52;;;;;;;8.23;2.35;;;6.60;99.90;;;;;;5069990;28;20047;-79
2022/01/05 12:27:24;;;;;;;18.20;2.92;;;6.90;99.90;;;;;;5083634;28;20070;-79
2022/01/05 12:29:51;;;;;;;18.75;3.95;;;6.80;99.90;;;;;;5062502;28;20404;-78
2022/01/05 12:32:37;;;;;;;18.48;3.42;;;6.80;99.90;;;;;;5052356;28;20055;-78
2022/01/05 12:35:08;;;;;;;8.95;2.50;;;6.80;99.90;;;;;;5089562;28;20146;-78
2022/01/05 12:37:54;;;;;;;13.75;2.42;;;6.70;99.90;;;;;;5065478;28;20513;-78
2022/01/05 12:40:39;;;;;;;19.45;3.08;;;6.70;99.90;;;;;;5077040;28;20066;-80
2022/01/05 12:43:11;;;;;;;18.65;2.83;;;6.80;99.90;;;;;;5066721;28;20510;-78
2022/01/05 12:45:59;;;;;;;21.98;3.75;;;6.50;99.90;;;;;;5086594;28;20047;-78
2022/01/05 12:48:39;;;;;;;18.13;3.10;;;6.50;99.90;;;;;;5082765;28;20046;-79
2022/01/05 12:51:14;;;;;;;13.30;2.88;;;6.60;99.90;;;;;;5085442;28;20043;-78
2022/01/05 12:54:10;;;;;;;17.42;3.53;;;6.70;99.90;;;;;;5068846;28;20040;-78
2022/01/05 12:56:55;;;;;;;15.15;3.15;;;6.80;99.90;;;;;;5086241;28;20059;-78